Time;durP1;ratioP1;P1;durP2;ratioP2;P2;SDS_P1;SDS_P2;PMS_P1;PMS_P2;Temp;Humidity;BMP_temperature;BMP_pressure;BME280_temperature;BME280_humidity;BME280_pressure;Samples;Min_cycle;Max_cycle;Signal;HPM_P1;HPM_P2
2023/06/07 00:00:59;;;;;;;6.38;4.60;;;19.10;97.90;;;;;;4940780;29;20076;-78
2023/06/07 00:03:26;;;;;;;7.78;4.80;;;19.10;98.00;;;;;;4943222;29;20044;-78
2023/06/07 00:05:52;;;;;;;9.35;4.43;;;19.10;98.00;;;;;;4947390;28;20091;-78
2023/06/07 00:08:18;;;;;;;9.40;5.05;;;19.10;98.10;;;;;;4939257;28;20127;-78
2023/06/07 00:10:44;;;;;;;8.95;4.38;;;19.10;98.00;;;;;;4921416;29;20048;-78
2023/06/07 00:13:10;;;;;;;8.15;4.40;;;19.10;98.10;;;;;;4868369;29;20342;-78
2023/06/07 00:15:36;;;;;;;9.35;4.88;;;19.10;98.10;;;;;;4918283;29;20104;-78
2023/06/07 00:18:02;;;;;;;7.07;4.50;;;19.00;98.20;;;;;;4910852;29;20056;-78
2023/06/07 00:20:27;;;;;;;7.32;4.13;;;19.00;98.10;;;;;;4933683;29;20048;-78
2023/06/07 00:22:56;;;;;;;7.50;4.13;;;19.00;98.00;;;;;;4926066;29;20047;-78
2023/06/07 00:25:22;;;;;;;7.65;4.50;;;19.00;98.00;;;;;;4921195;29;20123;-78
2023/06/07 00:27:48;;;;;;;9.35;4.93;;;19.00;98.20;;;;;;4945323;28;20528;-78
2023/06/07 00:30:14;;;;;;;8.45;4.70;;;19.00;98.10;;;;;;4901567;29;20044;-78
2023/06/07 00:32:40;;;;;;;9.52;4.82;;;19.00;97.90;;;;;;4904517;29;20056;-78
2023/06/07 00:35:07;;;;;;;7.35;4.90;;;19.00;97.80;;;;;;4888516;29;20044;-78
2023/06/07 00:37:33;;;;;;;7.55;4.90;;;18.90;97.90;;;;;;4934454;29;20048;-78
2023/06/07 00:39:59;;;;;;;10.82;5.13;;;18.90;97.90;;;;;;4903676;29;20524;-78
2023/06/07 00:42:25;;;;;;;12.18;5.05;;;19.00;98.10;;;;;;4957302;28;20052;-78
2023/06/07 00:44:51;;;;;;;9.70;5.03;;;19.00;98.40;;;;;;4922169;29;20130;-78
2023/06/07 00:47:17;;;;;;;7.70;4.97;;;18.90;98.60;;;;;;4920542;29;20099;-78
2023/06/07 00:49:43;;;;;;;8.88;5.10;;;18.90;98.70;;;;;;4949289;29;20524;-78
2023/06/07 00:52:10;;;;;;;7.05;5.10;;;18.90;98.70;;;;;;4960673;28;20126;-78
2023/06/07 00:54:35;;;;;;;9.68;5.00;;;18.90;98.70;;;;;;4923138;29;20057;-78
2023/06/07 00:57:01;;;;;;;8.73;5.53;;;18.90;98.80;;;;;;4901681;29;20067;-78
2023/06/07 00:59:27;;;;;;;8.60;5.05;;;18.90;98.90;;;;;;4903970;29;20722;-78
2023/06/07 01:01:55;;;;;;;7.10;5.22;;;18.90;98.90;;;;;;4909507;29;20044;-78
2023/06/07 01:04:24;;;;;;;10.00;4.57;;;18.90;98.90;;;;;;4902690;29;20052;-77
2023/06/07 01:06:52;;;;;;;7.70;4.93;;;18.80;99.20;;;;;;4929640;29;20064;-78
2023/06/07 01:09:19;;;;;;;15.63;4.90;;;18.80;99.20;;;;;;4918571;29;20122;-78
2023/06/07 01:11:47;;;;;;;7.87;5.37;;;18.80;99.40;;;;;;4918892;29;20127;-78
2023/06/07 01:14:13;;;;;;;8.52;5.40;;;18.80;99.60;;;;;;4903202;29;20127;-78
2023/06/07 01:16:45;;;;;;;9.13;5.25;;;18.80;99.90;;;;;;4873654;29;20556;-78
2023/06/07 01:19:23;;;;;;;10.23;5.72;;;18.80;99.90;;;;;;4930467;29;20048;-78
2023/06/07 01:22:18;;;;;;;9.85;5.15;;;18.70;99.90;;;;;;4918054;29;20044;-77
2023/06/07 01:24:47;;;;;;;8.65;5.70;;;18.70;99.90;;;;;;4916532;29;20052;-78
2023/06/07 01:27:12;;;;;;;8.88;5.35;;;18.70;99.90;;;;;;4908229;29;20461;-78
2023/06/07 01:29:39;;;;;;;9.50;6.05;;;18.70;99.90;;;;;;4922518;29;20055;-78
2023/06/07 01:32:12;;;;;;;8.20;5.38;;;18.70;99.90;;;;;;4876473;29;20040;-78
2023/06/07 01:34:38;;;;;;;10.10;5.68;;;18.70;99.90;;;;;;4959252;28;20048;-78
2023/06/07 01:37:05;;;;;;;8.00;5.78;;;18.70;99.90;;;;;;4929179;29;20040;-78
2023/06/07 01:39:30;;;;;;;8.55;5.85;;;18.70;99.90;;;;;;4940670;29;20481;-78
2023/06/07 01:41:56;;;;;;;8.10;5.82;;;18.60;99.90;;;;;;4886740;29;20052;-78
2023/06/07 01:44:22;;;;;;;9.75;6.10;;;18.60;99.90;;;;;;4920660;29;20040;-78
2023/06/07 01:46:47;;;;;;;10.20;6.32;;;18.70;99.90;;;;;;4928797;29;20059;-77
2023/06/07 01:49:15;;;;;;;10.50;6.60;;;18.60;99.90;;;;;;4882656;29;20050;-77
2023/06/07 01:51:42;;;;;;;10.47;6.03;;;18.60;99.90;;;;;;4909327;29;20365;-78
2023/06/07 01:54:07;;;;;;;8.82;6.25;;;18.60;99.90;;;;;;4929625;29;20051;-78
2023/06/07 01:57:00;;;;;;;10.63;6.10;;;18.60;99.90;;;;;;4905414;29;20057;-78
2023/06/07 01:59:31;;;;;;;11.63;6.07;;;18.60;99.90;;;;;;4933666;29;20058;-78
2023/06/07 02:02:27;;;;;;;9.23;6.15;;;18.60;99.90;;;;;;4932493;29;20079;-77
2023/06/07 02:04:57;;;;;;;10.10;6.65;;;18.50;99.90;;;;;;4920452;29;20059;-78
2023/06/07 02:07:24;;;;;;;8.82;5.60;;;18.60;99.90;;;;;;4922243;29;20051;-78
2023/06/07 02:09:50;;;;;;;9.48;6.45;;;18.50;99.90;;;;;;4927636;29;20043;-78
2023/06/07 02:12:16;;;;;;;9.82;6.13;;;18.50;99.90;;;;;;4911904;29;20052;-78
2023/06/07 02:14:43;;;;;;;10.38;6.22;;;18.50;99.90;;;;;;4947618;29;20616;-78
2023/06/07 02:17:09;;;;;;;7.57;6.13;;;18.50;99.90;;;;;;4906750;29;20051;-78
2023/06/07 02:19:35;;;;;;;8.52;5.95;;;18.40;99.90;;;;;;4921966;29;20050;-77
2023/06/07 02:22:01;;;;;;;9.15;6.00;;;18.40;99.90;;;;;;4944961;29;20488;-77
2023/06/07 02:24:27;;;;;;;9.70;5.70;;;18.40;99.90;;;;;;4901445;29;20051;-77
2023/06/07 02:26:53;;;;;;;8.95;6.38;;;18.40;99.90;;;;;;4894070;29;20047;-78
2023/06/07 02:29:22;;;;;;;10.00;6.28;;;18.30;99.90;;;;;;4909072;29;20043;-77
2023/06/07 02:31:49;;;;;;;9.52;5.80;;;18.30;99.90;;;;;;4936115;29;20126;-77
2023/06/07 02:34:14;;;;;;;8.75;6.10;;;18.30;99.90;;;;;;4944386;29;20092;-77
2023/06/07 02:36:40;;;;;;;11.07;6.60;;;18.30;99.90;;;;;;4930068;29;20119;-78
2023/06/07 02:39:07;;;;;;;11.93;7.15;;;18.30;99.90;;;;;;4889029;29;20112;-77
2023/06/07 02:41:33;;;;;;;8.85;6.18;;;18.40;99.90;;;;;;4948637;29;20043;-77
2023/06/07 02:43:59;;;;;;;11.85;7.00;;;18.40;99.90;;;;;;4964817;28;20043;-77
2023/06/07 02:46:25;;;;;;;10.40;6.55;;;18.40;99.90;;;;;;4965273;28;20670;-77
2023/06/07 02:48:51;;;;;;;13.68;7.25;;;18.30;99.90;;;;;;4889985;29;20413;-77
2023/06/07 02:51:17;;;;;;;10.35;6.30;;;18.30;99.90;;;;;;4885281;29;20039;-78
2023/06/07 02:53:44;;;;;;;8.88;6.50;;;18.30;99.90;;;;;;4905009;29;20040;-77
2023/06/07 02:56:11;;;;;;;9.45;6.10;;;18.30;99.90;;;;;;4905435;29;20047;-77
2023/06/07 02:58:36;;;;;;;10.10;6.53;;;18.30;99.90;;;;;;4905081;29;20047;-77
2023/06/07 03:01:07;;;;;;;11.40;6.75;;;18.30;99.90;;;;;;4919905;29;20432;-77
2023/06/07 03:03:36;;;;;;;13.48;6.90;;;18.20;99.90;;;;;;4951900;28;20123;-78
2023/06/07 03:06:04;;;;;;;10.55;6.32;;;18.20;99.90;;;;;;4933680;29;20048;-77
2023/06/07 03:08:30;;;;;;;8.88;6.75;;;18.20;99.90;;;;;;4932766;29;20044;-78
2023/06/07 03:10:56;;;;;;;9.75;6.88;;;18.20;99.90;;;;;;4932114;29;20039;-78
2023/06/07 03:13:23;;;;;;;10.35;7.22;;;18.10;99.90;;;;;;4940107;28;20075;-78
2023/06/07 03:15:49;;;;;;;9.57;7.05;;;18.10;99.90;;;;;;4959030;28;20504;-77
2023/06/07 03:18:15;;;;;;;9.50;7.60;;;18.20;99.90;;;;;;4936896;29;20047;-77
2023/06/07 03:20:42;;;;;;;9.45;7.00;;;18.10;99.90;;;;;;4940595;29;20070;-77
2023/06/07 03:23:09;;;;;;;8.35;7.10;;;18.10;99.90;;;;;;4941098;29;20056;-77
2023/06/07 03:25:35;;;;;;;9.15;7.18;;;18.10;99.90;;;;;;4917406;29;20461;-77
2023/06/07 03:28:02;;;;;;;9.70;7.43;;;18.10;99.90;;;;;;4943475;29;20678;-77
2023/06/07 03:30:28;;;;;;;9.30;7.30;;;18.10;99.90;;;;;;4930990;29;20087;-78
2023/06/07 03:32:54;;;;;;;9.10;7.20;;;18.10;99.90;;;;;;4961602;28;20110;-78
2023/06/07 03:35:20;;;;;;;9.60;7.18;;;18.10;99.90;;;;;;4945029;29;20487;-78
2023/06/07 03:37:45;;;;;;;9.93;7.43;;;18.10;99.90;;;;;;4942975;29;20119;-78
2023/06/07 03:40:11;;;;;;;12.10;7.57;;;18.10;99.90;;;;;;4939787;29;20044;-78
2023/06/07 03:42:38;;;;;;;11.23;7.28;;;18.00;99.90;;;;;;4930941;29;20072;-78
2023/06/07 03:45:04;;;;;;;11.98;8.00;;;18.00;99.90;;;;;;4924448;29;20973;-78
2023/06/07 03:47:30;;;;;;;11.05;6.82;;;18.00;99.90;;;;;;4924446;29;20047;-78
2023/06/07 03:49:56;;;;;;;8.90;7.38;;;18.00;99.90;;;;;;4909706;29;20088;-77
2023/06/07 03:52:22;;;;;;;12.65;9.02;;;18.00;99.90;;;;;;4908194;29;20050;-77
2023/06/07 03:54:48;;;;;;;11.45;8.13;;;17.90;99.90;;;;;;4939435;29;20051;-79
2023/06/07 03:57:13;;;;;;;12.52;8.73;;;17.90;99.90;;;;;;4934503;29;20388;-78
2023/06/07 03:59:40;;;;;;;11.00;8.20;;;17.90;99.90;;;;;;4892927;29;20048;-78
2023/06/07 04:02:06;;;;;;;13.15;7.88;;;17.90;99.90;;;;;;4955347;29;20040;-78
2023/06/07 04:04:33;;;;;;;11.02;7.68;;;18.00;99.90;;;;;;4950313;29;20054;-78
2023/06/07 04:07:02;;;;;;;12.77;8.40;;;18.00;99.90;;;;;;4939286;29;20143;-78
2023/06/07 04:09:28;;;;;;;11.95;7.75;;;17.90;99.90;;;;;;4968824;28;20052;-78
2023/06/07 04:11:54;;;;;;;11.68;9.13;;;17.90;99.90;;;;;;4929402;29;20427;-78
2023/06/07 04:14:20;;;;;;;9.10;8.20;;;18.00;99.90;;;;;;4931841;29;20047;-78
2023/06/07 04:16:46;;;;;;;11.68;8.40;;;17.90;99.90;;;;;;4908625;29;20040;-78
2023/06/07 04:19:11;;;;;;;13.13;8.35;;;17.90;99.90;;;;;;4887545;29;20408;-78
2023/06/07 04:21:38;;;;;;;11.00;7.82;;;17.90;99.90;;;;;;4941180;29;20070;-78
2023/06/07 04:24:04;;;;;;;11.23;8.55;;;17.90;99.90;;;;;;4920567;29;20819;-78
2023/06/07 04:26:31;;;;;;;10.88;7.68;;;18.00;99.90;;;;;;4933795;29;20071;-78
2023/06/07 04:29:00;;;;;;;10.75;7.88;;;18.00;99.90;;;;;;4925062;29;20043;-79
2023/06/07 04:31:34;;;;;;;11.68;8.38;;;18.00;99.90;;;;;;4957419;29;20078;-78
2023/06/07 04:34:01;;;;;;;10.15;7.93;;;18.00;99.90;;;;;;4913389;29;20044;-78
2023/06/07 04:36:30;;;;;;;10.32;8.05;;;18.00;99.90;;;;;;4925964;29;20057;-78
2023/06/07 04:38:56;;;;;;;12.82;8.50;;;18.00;99.90;;;;;;4952054;29;20044;-78
2023/06/07 04:41:30;;;;;;;14.02;9.23;;;18.00;99.90;;;;;;4948203;29;20811;-78
2023/06/07 04:43:56;;;;;;;12.88;9.43;;;18.00;99.90;;;;;;4932304;29;20075;-78
2023/06/07 04:46:23;;;;;;;13.77;9.02;;;18.00;99.90;;;;;;4917787;29;20528;-78
2023/06/07 04:48:48;;;;;;;11.27;9.18;;;18.00;99.90;;;;;;4933853;29;20044;-78
2023/06/07 04:51:18;;;;;;;12.45;9.30;;;18.00;99.90;;;;;;4926984;29;20040;-78
2023/06/07 04:53:46;;;;;;;13.68;9.05;;;18.00;99.90;;;;;;4948107;28;20086;-78
2023/06/07 04:56:12;;;;;;;11.20;8.77;;;18.00;99.90;;;;;;4922583;29;20191;-78
2023/06/07 04:58:41;;;;;;;14.85;10.43;;;18.00;99.90;;;;;;4939623;29;20319;-78
2023/06/07 05:01:10;;;;;;;12.32;8.93;;;18.00;99.90;;;;;;4919264;29;20045;-78
2023/06/07 05:03:38;;;;;;;12.48;8.98;;;18.00;99.90;;;;;;4932239;29;20663;-78
2023/06/07 05:06:04;;;;;;;12.27;9.57;;;18.00;99.90;;;;;;4938752;29;20205;-78
2023/06/07 05:08:30;;;;;;;15.02;9.57;;;18.00;99.90;;;;;;4947765;29;20138;-79
2023/06/07 05:10:56;;;;;;;13.70;9.48;;;18.00;99.90;;;;;;4917514;29;20102;-79
2023/06/07 05:13:22;;;;;;;12.40;9.10;;;18.00;99.90;;;;;;4942379;29;20044;-79
2023/06/07 05:15:51;;;;;;;10.90;9.13;;;18.10;99.90;;;;;;4940280;29;20046;-79
2023/06/07 05:18:20;;;;;;;12.02;9.20;;;18.10;99.90;;;;;;4938224;29;20044;-78
2023/06/07 05:20:48;;;;;;;10.43;9.10;;;18.10;99.90;;;;;;4926065;29;20044;-79
2023/06/07 05:23:16;;;;;;;14.88;9.02;;;18.10;99.90;;;;;;4939389;29;20048;-79
2023/06/07 05:25:46;;;;;;;13.20;9.73;;;18.10;99.90;;;;;;4943317;29;20380;-79
2023/06/07 05:28:12;;;;;;;15.45;10.15;;;18.20;99.90;;;;;;4945601;29;20047;-79
2023/06/07 05:30:37;;;;;;;10.88;9.32;;;18.20;99.90;;;;;;4899823;29;20044;-79
2023/06/07 05:33:04;;;;;;;14.63;9.60;;;18.20;99.90;;;;;;4943058;29;20068;-80
2023/06/07 05:35:32;;;;;;;14.68;8.90;;;18.20;99.90;;;;;;4945248;29;20130;-80
2023/06/07 05:37:58;;;;;;;11.23;9.23;;;18.30;99.90;;;;;;4938722;29;20059;-79
2023/06/07 05:40:25;;;;;;;13.02;9.45;;;18.30;99.90;;;;;;4917970;29;20051;-79
2023/06/07 05:42:50;;;;;;;11.23;8.98;;;18.30;99.90;;;;;;4918489;29;20044;-79
2023/06/07 05:45:17;;;;;;;11.48;8.30;;;18.30;99.90;;;;;;4931356;29;20063;-80
2023/06/07 05:47:45;;;;;;;12.45;8.45;;;18.30;99.90;;;;;;4925036;29;20729;-79
2023/06/07 05:50:14;;;;;;;12.13;8.93;;;18.30;99.90;;;;;;4907630;29;20107;-79
2023/06/07 05:52:40;;;;;;;;;;;18.30;99.90;;;;;;4921096;29;20464;-79
2023/06/07 05:55:07;;;;;;;10.23;8.38;;;18.30;99.90;;;;;;4924856;29;19914;-79
2023/06/07 05:57:33;;;;;;;12.90;8.38;;;18.30;99.90;;;;;;4947141;29;20055;-79
2023/06/07 05:59:59;;;;;;;14.82;8.55;;;18.30;99.90;;;;;;4956954;28;20373;-79
2023/06/07 06:02:26;;;;;;;10.70;8.55;;;18.30;99.90;;;;;;4957039;28;20061;-79
2023/06/07 06:04:52;;;;;;;9.98;8.98;;;18.40;99.90;;;;;;4926036;29;20051;-79
2023/06/07 06:07:19;;;;;;;10.20;8.52;;;18.40;99.90;;;;;;4938694;29;20094;-80
2023/06/07 06:09:46;;;;;;;10.77;8.07;;;18.40;99.90;;;;;;4875342;29;20047;-80
2023/06/07 06:12:12;;;;;;;11.18;8.40;;;18.40;99.90;;;;;;4907972;29;20449;-80
2023/06/07 06:14:38;;;;;;;9.90;7.93;;;18.40;99.90;;;;;;4923423;29;20044;-80
2023/06/07 06:17:05;;;;;;;10.00;8.32;;;18.50;99.90;;;;;;4876719;29;20481;-80
2023/06/07 06:19:31;;;;;;;10.13;8.45;;;18.50;99.90;;;;;;4947718;29;20075;-80
2023/06/07 06:21:57;;;;;;;11.73;8.45;;;18.50;99.90;;;;;;4927211;29;20091;-80
2023/06/07 06:24:22;;;;;;;10.98;8.98;;;18.60;99.90;;;;;;4875083;29;20464;-80
2023/06/07 06:26:48;;;;;;;10.32;8.13;;;18.60;99.90;;;;;;4890764;29;20052;-80
2023/06/07 06:29:14;;;;;;;9.65;7.97;;;18.60;99.90;;;;;;4935682;29;20055;-79
2023/06/07 06:31:41;;;;;;;11.25;8.00;;;18.60;99.90;;;;;;4964179;28;20043;-80
2023/06/07 06:34:07;;;;;;;11.40;8.73;;;18.60;99.90;;;;;;4907770;29;20044;-80
2023/06/07 06:36:34;;;;;;;11.32;7.97;;;18.70;99.90;;;;;;4949963;29;20044;-80
2023/06/07 06:39:00;;;;;;;14.60;8.73;;;18.70;99.90;;;;;;4904348;29;20055;-80
2023/06/07 06:41:25;;;;;;;12.82;8.75;;;18.70;99.90;;;;;;4932120;29;20086;-80
2023/06/07 06:43:51;;;;;;;11.80;8.57;;;18.70;99.90;;;;;;4924059;29;20056;-80
2023/06/07 06:46:17;;;;;;;13.23;8.32;;;18.70;99.90;;;;;;4876676;29;20051;-80
2023/06/07 06:48:43;;;;;;;9.38;8.25;;;18.80;99.90;;;;;;4908899;29;20046;-80
2023/06/07 06:51:08;;;;;;;12.55;8.57;;;18.70;99.90;;;;;;4923713;29;20044;-81
2023/06/07 06:53:34;;;;;;;12.48;8.05;;;18.80;99.90;;;;;;4921944;29;20043;-80
2023/06/07 06:56:03;;;;;;;12.77;9.23;;;18.90;99.90;;;;;;4906104;29;20048;-79
2023/06/07 06:58:30;;;;;;;12.65;8.93;;;18.90;99.90;;;;;;4959410;28;20039;-81
2023/06/07 07:00:57;;;;;;;12.13;9.03;;;19.00;99.90;;;;;;4909195;29;20036;-80
2023/06/07 07:03:23;;;;;;;11.93;9.73;;;19.00;99.90;;;;;;4938259;29;20040;-80
2023/06/07 07:05:51;;;;;;;12.25;8.98;;;19.00;99.90;;;;;;4921666;29;20432;-79
2023/06/07 07:08:17;;;;;;;12.80;9.77;;;19.00;99.90;;;;;;4907577;29;20488;-79
2023/06/07 07:10:43;;;;;;;12.25;9.18;;;19.10;99.90;;;;;;4937708;29;20044;-81
2023/06/07 07:13:09;;;;;;;10.90;8.63;;;19.10;99.90;;;;;;4933374;29;20456;-80
2023/06/07 07:15:36;;;;;;;15.82;9.10;;;19.10;99.90;;;;;;4936651;29;20077;-81
2023/06/07 07:18:02;;;;;;;9.88;8.18;;;19.10;99.90;;;;;;4953318;28;20575;-81
2023/06/07 07:20:28;;;;;;;11.50;8.80;;;19.20;99.90;;;;;;4906953;29;20098;-81
2023/06/07 07:22:55;;;;;;;10.18;8.43;;;19.20;99.90;;;;;;4923263;29;20043;-81
2023/06/07 07:25:21;;;;;;;13.20;8.32;;;19.20;99.90;;;;;;4907167;29;20493;-81
2023/06/07 07:27:46;;;;;;;10.93;7.70;;;19.20;99.90;;;;;;4949901;29;20075;-80
2023/06/07 07:30:12;;;;;;;9.90;7.68;;;19.30;99.90;;;;;;4942633;29;20044;-80
2023/06/07 07:32:38;;;;;;;10.35;7.28;;;19.30;99.90;;;;;;4923320;29;20055;-80
2023/06/07 07:35:04;;;;;;;10.15;7.53;;;19.30;99.90;;;;;;4945121;29;20035;-81
2023/06/07 07:37:30;;;;;;;11.00;7.63;;;19.40;99.90;;;;;;4947259;29;20086;-80
2023/06/07 07:39:56;;;;;;;9.40;6.72;;;19.40;99.90;;;;;;4921352;29;20071;-80
2023/06/07 07:42:22;;;;;;;10.05;7.32;;;19.40;99.90;;;;;;4943878;29;20051;-80
2023/06/07 07:44:48;;;;;;;7.60;6.60;;;19.40;99.90;;;;;;4951173;29;20063;-80
2023/06/07 07:47:13;;;;;;;7.75;6.53;;;19.40;99.90;;;;;;4920348;29;20071;-80
2023/06/07 07:49:40;;;;;;;9.70;6.88;;;19.50;99.90;;;;;;4934200;29;20453;-81
2023/06/07 07:52:07;;;;;;;9.63;6.88;;;19.50;99.90;;;;;;4910051;29;20449;-81
2023/06/07 07:54:32;;;;;;;10.48;7.63;;;19.50;99.90;;;;;;4906241;29;20127;-81
2023/06/07 07:56:58;;;;;;;8.30;6.80;;;19.60;99.90;;;;;;4918547;29;20063;-81
2023/06/07 07:59:24;;;;;;;8.65;6.60;;;19.60;99.90;;;;;;4903441;29;20048;-80
2023/06/07 08:01:51;;;;;;;10.95;6.55;;;19.60;99.90;;;;;;4872039;29;20086;-80
2023/06/07 08:04:17;;;;;;;9.65;6.70;;;19.60;99.90;;;;;;4930873;29;20044;-80
2023/06/07 08:06:45;;;;;;;7.47;6.45;;;19.60;99.90;;;;;;4891782;29;20047;-80
2023/06/07 08:09:11;;;;;;;8.57;6.43;;;19.70;99.90;;;;;;4956652;28;20059;-80
2023/06/07 08:11:37;;;;;;;8.98;6.32;;;19.60;99.90;;;;;;4952978;28;20086;-80
2023/06/07 08:14:03;;;;;;;10.02;6.53;;;19.70;99.90;;;;;;4966571;28;20135;-81
2023/06/07 08:16:30;;;;;;;8.73;5.80;;;19.70;99.90;;;;;;4950473;29;20130;-80
2023/06/07 08:18:58;;;;;;;13.60;6.20;;;19.70;99.90;;;;;;4916060;29;20052;-80
2023/06/07 08:21:27;;;;;;;7.68;5.80;;;19.70;99.90;;;;;;4904859;29;20056;-80
2023/06/07 08:23:54;;;;;;;6.78;5.38;;;19.70;99.90;;;;;;4933688;29;20047;-81
2023/06/07 08:26:21;;;;;;;7.65;5.78;;;19.70;99.90;;;;;;4920988;29;20056;-81
2023/06/07 08:28:46;;;;;;;9.60;5.82;;;19.80;99.90;;;;;;4904688;29;20048;-80
2023/06/07 08:31:12;;;;;;;8.90;6.43;;;19.80;99.90;;;;;;4941787;29;20037;-81
2023/06/07 08:33:38;;;;;;;9.00;6.30;;;19.80;99.90;;;;;;4922678;29;20051;-81
2023/06/07 08:36:04;;;;;;;8.68;6.00;;;19.90;99.90;;;;;;4934954;29;20072;-81
2023/06/07 08:38:30;;;;;;;8.85;6.70;;;19.90;99.90;;;;;;4946550;29;20044;-80
2023/06/07 08:40:56;;;;;;;9.45;6.57;;;19.90;99.90;;;;;;4916767;29;20545;-80
2023/06/07 08:43:23;;;;;;;9.75;5.60;;;20.00;99.90;;;;;;4964812;28;20115;-81
2023/06/07 08:45:52;;;;;;;7.53;5.70;;;20.00;99.90;;;;;;4907671;29;20044;-81
2023/06/07 08:48:18;;;;;;;7.55;5.50;;;20.10;99.90;;;;;;4896564;29;20058;-81
2023/06/07 08:50:45;;;;;;;10.48;6.03;;;20.10;99.90;;;;;;4890364;29;20044;-80
2023/06/07 08:53:14;;;;;;;9.65;6.13;;;20.20;99.90;;;;;;4933241;29;20040;-80
2023/06/07 08:55:42;;;;;;;9.23;5.90;;;20.20;99.90;;;;;;4941397;29;20044;-80
2023/06/07 08:58:07;;;;;;;7.17;6.10;;;20.30;99.90;;;;;;4893694;29;20052;-81
2023/06/07 09:00:33;;;;;;;9.50;6.47;;;20.30;99.90;;;;;;4906919;29;20343;-81
2023/06/07 09:02:59;;;;;;;8.07;5.95;;;20.30;99.90;;;;;;4874777;29;20754;-80
2023/06/07 09:05:25;;;;;;;12.38;6.40;;;20.40;99.90;;;;;;4908646;29;20056;-80
2023/06/07 09:07:50;;;;;;;7.70;5.75;;;20.40;99.90;;;;;;4875339;29;20176;-80
2023/06/07 09:10:19;;;;;;;9.18;5.85;;;20.40;99.90;;;;;;4906488;29;20079;-80
2023/06/07 09:12:47;;;;;;;9.98;6.82;;;20.50;99.90;;;;;;4891315;29;20040;-82
2023/06/07 09:15:18;;;;;;;9.93;6.63;;;20.40;99.90;;;;;;4904007;29;20104;-81
2023/06/07 09:17:53;;;;;;;9.25;6.55;;;20.40;99.90;;;;;;4890220;29;20080;-81
2023/06/07 09:20:20;;;;;;;9.25;6.68;;;20.50;99.90;;;;;;4946942;29;20117;-81
2023/06/07 09:23:02;;;;;;;8.63;5.90;;;20.60;99.90;;;;;;4931182;29;20068;-81
2023/06/07 09:25:30;;;;;;;8.10;6.00;;;20.70;99.90;;;;;;4891756;29;20075;-81
2023/06/07 09:27:57;;;;;;;8.00;6.07;;;20.70;99.90;;;;;;4950523;28;20048;-81
2023/06/07 09:30:23;;;;;;;7.47;5.95;;;20.70;99.90;;;;;;4946289;29;20048;-81
2023/06/07 09:32:49;;;;;;;10.02;5.68;;;20.80;99.90;;;;;;4925440;29;20158;-82
2023/06/07 09:35:16;;;;;;;6.95;5.20;;;20.80;99.90;;;;;;4891142;29;20044;-81
2023/06/07 09:37:46;;;;;;;7.88;5.93;;;20.80;99.90;;;;;;4905072;29;20080;-82
2023/06/07 09:40:14;;;;;;;10.07;5.30;;;20.80;99.90;;;;;;4921456;29;20063;-80
2023/06/07 09:42:41;;;;;;;18.48;9.18;;;20.90;99.90;;;;;;4941500;29;20055;-80
2023/06/07 09:45:17;;;;;;;16.75;8.18;;;20.90;99.90;;;;;;4931425;29;20082;-80
2023/06/07 09:47:43;;;;;;;16.30;8.20;;;21.00;99.90;;;;;;4935321;29;20079;-81
2023/06/07 09:50:13;;;;;;;18.00;9.88;;;21.10;99.90;;;;;;4912485;29;20098;-80
2023/06/07 09:52:39;;;;;;;22.92;11.43;;;21.10;99.90;;;;;;4942054;29;20428;-80
2023/06/07 09:55:06;;;;;;;17.05;7.60;;;21.20;99.90;;;;;;4903187;29;20111;-81
2023/06/07 09:57:33;;;;;;;19.27;9.87;;;21.20;99.90;;;;;;4880949;29;20052;-81
2023/06/07 10:00:14;;;;;;;28.40;12.63;;;21.20;99.90;;;;;;4947627;29;20079;-80
2023/06/07 10:02:43;;;;;;;47.13;20.83;;;21.20;99.90;;;;;;4919147;29;20040;-80
2023/06/07 10:05:12;;;;;;;34.75;17.15;;;21.30;99.90;;;;;;4916724;29;20047;-81
2023/06/07 10:07:41;;;;;;;34.53;15.80;;;21.40;99.90;;;;;;4880573;29;20055;-80
2023/06/07 10:10:09;;;;;;;40.50;16.73;;;21.40;99.90;;;;;;4915024;29;20037;-79
2023/06/07 10:12:38;;;;;;;24.20;10.23;;;21.50;99.90;;;;;;4942496;29;20084;-80
2023/06/07 10:15:05;;;;;;;28.85;14.75;;;21.50;99.90;;;;;;4927544;29;20280;-80
2023/06/07 10:17:53;;;;;;;23.58;11.88;;;21.60;98.80;;;;;;4883171;29;20052;-80
2023/06/07 10:20:30;;;;;;;37.88;15.52;;;21.60;98.00;;;;;;4928995;29;20054;-80
2023/06/07 10:23:23;;;;;;;31.88;14.23;;;21.60;98.50;;;;;;4933280;29;20123;-80
2023/06/07 10:25:53;;;;;;;28.67;14.20;;;21.80;98.20;;;;;;4911586;29;20058;-80
2023/06/07 10:28:30;;;;;;;44.95;19.83;;;21.80;98.80;;;;;;4911734;29;20059;-80
2023/06/07 10:31:03;;;;;;;27.13;12.43;;;21.90;98.20;;;;;;4917160;29;20040;-80
2023/06/07 10:33:28;;;;;;;17.92;9.75;;;22.00;98.30;;;;;;4895060;29;20036;-81
2023/06/07 10:35:54;;;;;;;33.78;14.48;;;22.00;98.30;;;;;;4918529;29;20040;-81
2023/06/07 10:38:20;;;;;;;29.92;14.13;;;22.10;98.80;;;;;;4930976;29;20059;-80
2023/06/07 10:40:46;;;;;;;15.50;7.72;;;22.20;98.40;;;;;;4903837;29;20102;-80
2023/06/07 10:43:12;;;;;;;24.23;11.05;;;22.20;97.50;;;;;;4890647;29;20056;-80
2023/06/07 10:45:38;;;;;;;22.70;10.32;;;22.30;96.30;;;;;;4922472;29;20063;-80
2023/06/07 10:48:33;;;;;;;22.00;10.82;;;22.30;96.90;;;;;;4921213;29;20051;-81
2023/06/07 10:50:59;;;;;;;18.60;8.90;;;22.20;95.10;;;;;;4904696;29;20051;-81
2023/06/07 10:53:25;;;;;;;15.30;7.63;;;22.30;96.00;;;;;;4901984;29;20445;-81
2023/06/07 10:55:50;;;;;;;16.88;8.48;;;22.40;95.40;;;;;;4929486;29;20564;-81
2023/06/07 10:58:27;;;;;;;12.70;5.57;;;22.50;95.70;;;;;;4910418;29;20561;-81
2023/06/07 11:00:54;;;;;;;12.15;6.53;;;22.80;95.20;;;;;;4928780;29;20048;-81
2023/06/07 11:03:23;;;;;;;26.90;12.45;;;22.90;94.20;;;;;;4926638;29;20485;-80
2023/06/07 11:05:58;;;;;;;8.82;4.35;;;23.00;93.90;;;;;;4919048;29;20060;-80
2023/06/07 11:08:24;;;;;;;9.40;4.97;;;23.10;95.20;;;;;;4903489;29;20134;-80
2023/06/07 11:10:50;;;;;;;6.90;4.32;;;23.30;93.20;;;;;;4919006;29;20041;-80
2023/06/07 11:13:16;;;;;;;13.20;6.18;;;23.20;92.60;;;;;;4923189;29;20040;-80
2023/06/07 11:15:42;;;;;;;10.60;6.05;;;23.10;91.60;;;;;;4903893;29;20492;-80
2023/06/07 11:18:08;;;;;;;15.65;7.47;;;23.10;93.00;;;;;;4905192;29;20048;-80
2023/06/07 11:20:37;;;;;;;14.52;7.90;;;23.10;92.70;;;;;;4949065;28;20051;-79
2023/06/07 11:23:30;;;;;;;13.82;7.00;;;23.00;92.40;;;;;;4946274;28;20437;-80
2023/06/07 11:26:10;;;;;;;11.25;5.97;;;23.00;92.10;;;;;;4922875;29;20047;-80
2023/06/07 11:28:37;;;;;;;8.57;5.10;;;22.90;92.50;;;;;;4923614;29;20050;-81
2023/06/07 11:31:03;;;;;;;9.90;5.05;;;22.90;91.60;;;;;;4938801;29;20044;-80
2023/06/07 11:33:30;;;;;;;13.52;5.63;;;22.90;92.60;;;;;;4906280;29;20036;-80
2023/06/07 11:35:56;;;;;;;17.85;5.55;;;23.00;92.10;;;;;;4965415;28;20044;-80
2023/06/07 11:38:22;;;;;;;14.02;5.60;;;23.00;92.40;;;;;;4935262;29;20044;-80
2023/06/07 11:40:48;;;;;;;21.33;9.45;;;23.00;92.30;;;;;;4890525;29;20054;-80
2023/06/07 11:43:15;;;;;;;15.80;6.38;;;23.10;93.20;;;;;;4907400;29;20079;-80
2023/06/07 11:46:03;;;;;;;9.30;4.93;;;23.10;92.40;;;;;;4957379;28;20044;-81
2023/06/07 11:48:29;;;;;;;9.05;4.68;;;23.20;91.90;;;;;;4935855;29;20059;-81
2023/06/07 11:50:56;;;;;;;6.43;3.38;;;23.10;91.70;;;;;;4938125;29;20040;-81
2023/06/07 11:53:21;;;;;;;10.57;4.05;;;23.10;90.50;;;;;;4937345;29;20381;-81
2023/06/07 11:55:47;;;;;;;9.00;4.13;;;23.30;90.90;;;;;;4872321;29;20048;-81
2023/06/07 11:58:13;;;;;;;6.10;3.70;;;23.50;91.40;;;;;;4910903;29;20657;-80
2023/06/07 12:00:42;;;;;;;7.63;3.28;;;23.60;90.40;;;;;;4905881;29;20051;-81
2023/06/07 12:03:08;;;;;;;8.68;3.80;;;23.70;91.10;;;;;;4909872;29;20765;-81
2023/06/07 12:05:37;;;;;;;9.20;3.33;;;23.90;90.20;;;;;;4938913;29;20075;-81
2023/06/07 12:08:27;;;;;;;6.85;3.30;;;24.00;90.30;;;;;;4890448;29;20143;-81
2023/06/07 12:10:54;;;;;;;11.88;4.93;;;23.70;84.60;;;;;;4927647;29;20050;-81
2023/06/07 12:13:21;;;;;;;9.40;4.30;;;23.60;87.60;;;;;;4906885;29;20067;-81
2023/06/07 12:15:55;;;;;;;7.20;4.32;;;23.40;89.10;;;;;;4938379;29;20043;-81
2023/06/07 12:18:26;;;;;;;7.72;3.97;;;23.40;90.00;;;;;;4876347;29;20083;-81
2023/06/07 12:21:03;;;;;;;6.38;4.10;;;23.20;85.60;;;;;;4939148;29;20381;-81
2023/06/07 12:23:29;;;;;;;6.68;3.80;;;23.20;87.70;;;;;;4907341;29;20048;-81
2023/06/07 12:26:17;;;;;;;9.25;3.83;;;23.20;89.90;;;;;;4937889;29;20090;-81
2023/06/07 12:28:43;;;;;;;7.75;3.70;;;23.20;89.10;;;;;;4921706;29;20055;-80
2023/06/07 12:31:28;;;;;;;8.73;3.70;;;23.10;90.40;;;;;;4935872;29;20528;-81
2023/06/07 12:33:57;;;;;;;8.02;4.07;;;23.10;90.00;;;;;;4936154;29;20457;-81
2023/06/07 12:36:25;;;;;;;6.60;3.63;;;23.10;90.50;;;;;;4921471;29;20350;-81
2023/06/07 12:38:52;;;;;;;;;;;23.10;89.90;;;;;;4912495;29;20047;-81
2023/06/07 12:41:19;;;;;;;5.97;3.97;;;23.00;90.10;;;;;;4948049;28;20017;-81
2023/06/07 12:43:45;;;;;;;6.78;3.85;;;23.00;90.20;;;;;;4901729;29;20063;-81